sensor_id;sensor_type;location;lat;lon;timestamp;temperature;humidity
5508;DHT22;2776;51.046;6.772;2023-04-03T00:00:20;2.50;99.90
5508;DHT22;2776;51.046;6.772;2023-04-03T00:02:47;2.40;99.90
5508;DHT22;2776;51.046;6.772;2023-04-03T00:05:13;2.30;99.90
5508;DHT22;2776;51.046;6.772;2023-04-03T00:07:42;2.30;99.90
5508;DHT22;2776;51.046;6.772;2023-04-03T00:10:09;2.30;99.90
5508;DHT22;2776;51.046;6.772;2023-04-03T00:12:36;2.20;99.90
5508;DHT22;2776;51.046;6.772;2023-04-03T00:15:03;2.20;99.90
5508;DHT22;2776;51.046;6.772;2023-04-03T00:17:30;2.20;99.90
5508;DHT22;2776;51.046;6.772;2023-04-03T00:19:57;2.10;99.90
5508;DHT22;2776;51.046;6.772;2023-04-03T00:22:23;2.10;99.90
5508;DHT22;2776;51.046;6.772;2023-04-03T00:24:53;2.10;99.90
5508;DHT22;2776;51.046;6.772;2023-04-03T00:27:20;2.00;99.90
5508;DHT22;2776;51.046;6.772;2023-04-03T00:29:46;2.00;99.90
5508;DHT22;2776;51.046;6.772;2023-04-03T00:32:13;2.00;99.90
5508;DHT22;2776;51.046;6.772;2023-04-03T00:34:40;1.90;99.90
5508;DHT22;2776;51.046;6.772;2023-04-03T00:37:07;1.90;99.90
5508;DHT22;2776;51.046;6.772;2023-04-03T00:39:34;1.80;99.90
5508;DHT22;2776;51.046;6.772;2023-04-03T00:42:02;1.70;99.90
5508;DHT22;2776;51.046;6.772;2023-04-03T00:47:30;1.70;99.90
5508;DHT22;2776;51.046;6.772;2023-04-03T00:49:57;1.60;99.90
5508;DHT22;2776;51.046;6.772;2023-04-03T00:52:27;1.60;99.90
5508;DHT22;2776;51.046;6.772;2023-04-03T00:54:58;1.50;99.90
5508;DHT22;2776;51.046;6.772;2023-04-03T00:57:29;1.50;99.90
5508;DHT22;2776;51.046;6.772;2023-04-03T01:00:00;1.40;99.90
5508;DHT22;2776;51.046;6.772;2023-04-03T01:02:28;1.40;99.90
5508;DHT22;2776;51.046;6.772;2023-04-03T01:04:55;1.40;99.90
5508;DHT22;2776;51.046;6.772;2023-04-03T01:07:24;1.30;99.90
5508;DHT22;2776;51.046;6.772;2023-04-03T01:09:55;1.30;99.90
5508;DHT22;2776;51.046;6.772;2023-04-03T01:12:24;1.30;99.90
5508;DHT22;2776;51.046;6.772;2023-04-03T01:14:54;1.20;99.90
5508;DHT22;2776;51.046;6.772;2023-04-03T01:17:27;1.20;99.90
5508;DHT22;2776;51.046;6.772;2023-04-03T01:20:17;1.20;99.90
5508;DHT22;2776;51.046;6.772;2023-04-03T01:22:53;1.10;99.90
5508;DHT22;2776;51.046;6.772;2023-04-03T01:25:23;1.10;99.90
5508;DHT22;2776;51.046;6.772;2023-04-03T01:27:50;1.00;99.90
5508;DHT22;2776;51.046;6.772;2023-04-03T01:30:19;0.90;99.90
5508;DHT22;2776;51.046;6.772;2023-04-03T01:32:48;0.90;99.90
5508;DHT22;2776;51.046;6.772;2023-04-03T01:35:15;0.90;99.90
5508;DHT22;2776;51.046;6.772;2023-04-03T01:37:42;0.90;99.90
5508;DHT22;2776;51.046;6.772;2023-04-03T01:40:09;0.90;99.90
5508;DHT22;2776;51.046;6.772;2023-04-03T01:42:36;1.00;99.90
5508;DHT22;2776;51.046;6.772;2023-04-03T01:45:03;1.00;99.90
5508;DHT22;2776;51.046;6.772;2023-04-03T01:47:30;1.00;99.90
5508;DHT22;2776;51.046;6.772;2023-04-03T01:49:58;1.00;99.90
5508;DHT22;2776;51.046;6.772;2023-04-03T01:52:25;1.00;99.90
5508;DHT22;2776;51.046;6.772;2023-04-03T01:54:52;1.00;99.90
5508;DHT22;2776;51.046;6.772;2023-04-03T01:57:19;1.00;99.90
5508;DHT22;2776;51.046;6.772;2023-04-03T01:59:45;1.00;99.90
5508;DHT22;2776;51.046;6.772;2023-04-03T02:02:12;1.00;99.90
5508;DHT22;2776;51.046;6.772;2023-04-03T02:04:40;0.90;99.90
5508;DHT22;2776;51.046;6.772;2023-04-03T02:07:08;0.90;99.90
5508;DHT22;2776;51.046;6.772;2023-04-03T02:09:35;0.90;99.90
5508;DHT22;2776;51.046;6.772;2023-04-03T02:12:02;0.90;99.90
5508;DHT22;2776;51.046;6.772;2023-04-03T02:14:29;0.90;99.90
5508;DHT22;2776;51.046;6.772;2023-04-03T02:16:55;0.90;99.90
5508;DHT22;2776;51.046;6.772;2023-04-03T02:19:22;0.90;99.90
5508;DHT22;2776;51.046;6.772;2023-04-03T02:21:49;0.90;99.90
5508;DHT22;2776;51.046;6.772;2023-04-03T02:24:17;0.90;99.90
5508;DHT22;2776;51.046;6.772;2023-04-03T02:26:44;0.90;99.90
5508;DHT22;2776;51.046;6.772;2023-04-03T02:29:11;0.90;99.90
5508;DHT22;2776;51.046;6.772;2023-04-03T02:31:38;0.90;99.90
5508;DHT22;2776;51.046;6.772;2023-04-03T02:34:05;0.90;99.90
5508;DHT22;2776;51.046;6.772;2023-04-03T02:36:32;0.90;99.90
5508;DHT22;2776;51.046;6.772;2023-04-03T02:38:58;0.90;99.90
5508;DHT22;2776;51.046;6.772;2023-04-03T02:41:27;0.90;99.90
5508;DHT22;2776;51.046;6.772;2023-04-03T02:44:00;0.80;99.90
5508;DHT22;2776;51.046;6.772;2023-04-03T02:46:26;0.90;99.90
5508;DHT22;2776;51.046;6.772;2023-04-03T02:48:54;0.90;99.90
5508;DHT22;2776;51.046;6.772;2023-04-03T02:51:20;0.90;99.90
5508;DHT22;2776;51.046;6.772;2023-04-03T02:53:48;0.90;99.90
5508;DHT22;2776;51.046;6.772;2023-04-03T02:56:15;0.80;99.90
5508;DHT22;2776;51.046;6.772;2023-04-03T02:58:45;0.80;99.90
5508;DHT22;2776;51.046;6.772;2023-04-03T03:01:12;0.90;99.90
5508;DHT22;2776;51.046;6.772;2023-04-03T03:03:39;0.90;99.90
5508;DHT22;2776;51.046;6.772;2023-04-03T03:06:07;0.90;99.90
5508;DHT22;2776;51.046;6.772;2023-04-03T03:08:35;0.90;99.90
5508;DHT22;2776;51.046;6.772;2023-04-03T03:11:02;0.90;99.90
5508;DHT22;2776;51.046;6.772;2023-04-03T03:13:29;0.90;99.90
5508;DHT22;2776;51.046;6.772;2023-04-03T03:15:57;0.90;99.90
5508;DHT22;2776;51.046;6.772;2023-04-03T03:18:24;0.90;99.90
5508;DHT22;2776;51.046;6.772;2023-04-03T03:20:51;0.90;99.90
5508;DHT22;2776;51.046;6.772;2023-04-03T03:23:18;1.00;99.90
5508;DHT22;2776;51.046;6.772;2023-04-03T03:25:45;1.00;99.90
5508;DHT22;2776;51.046;6.772;2023-04-03T03:28:12;1.10;99.90
5508;DHT22;2776;51.046;6.772;2023-04-03T03:30:38;1.10;99.90
5508;DHT22;2776;51.046;6.772;2023-04-03T03:33:07;1.10;99.90
5508;DHT22;2776;51.046;6.772;2023-04-03T03:35:33;1.10;99.90
5508;DHT22;2776;51.046;6.772;2023-04-03T03:38:00;1.10;99.90
5508;DHT22;2776;51.046;6.772;2023-04-03T03:40:27;1.10;99.90
5508;DHT22;2776;51.046;6.772;2023-04-03T03:42:54;1.20;99.90
5508;DHT22;2776;51.046;6.772;2023-04-03T03:45:21;1.20;99.90
5508;DHT22;2776;51.046;6.772;2023-04-03T03:47:47;1.20;99.90
5508;DHT22;2776;51.046;6.772;2023-04-03T03:50:15;1.20;99.90
5508;DHT22;2776;51.046;6.772;2023-04-03T03:52:42;1.20;99.90
5508;DHT22;2776;51.046;6.772;2023-04-03T03:55:10;1.20;99.90
5508;DHT22;2776;51.046;6.772;2023-04-03T03:57:36;1.20;99.90
5508;DHT22;2776;51.046;6.772;2023-04-03T04:00:04;1.20;99.90
5508;DHT22;2776;51.046;6.772;2023-04-03T04:02:32;1.20;99.90
5508;DHT22;2776;51.046;6.772;2023-04-03T04:04:59;1.30;99.90
5508;DHT22;2776;51.046;6.772;2023-04-03T04:07:27;1.20;99.90
5508;DHT22;2776;51.046;6.772;2023-04-03T04:09:55;1.20;99.90
5508;DHT22;2776;51.046;6.772;2023-04-03T04:12:21;1.20;99.90
5508;DHT22;2776;51.046;6.772;2023-04-03T04:14:48;1.20;99.90
5508;DHT22;2776;51.046;6.772;2023-04-03T04:17:15;1.20;99.90
5508;DHT22;2776;51.046;6.772;2023-04-03T04:19:42;1.20;99.90
5508;DHT22;2776;51.046;6.772;2023-04-03T04:22:09;1.20;99.90
5508;DHT22;2776;51.046;6.772;2023-04-03T04:24:37;1.20;99.90
5508;DHT22;2776;51.046;6.772;2023-04-03T04:27:03;1.20;99.90
5508;DHT22;2776;51.046;6.772;2023-04-03T04:29:30;1.20;99.90
5508;DHT22;2776;51.046;6.772;2023-04-03T04:32:01;1.00;99.90
5508;DHT22;2776;51.046;6.772;2023-04-03T04:34:27;1.00;99.90
5508;DHT22;2776;51.046;6.772;2023-04-03T04:36:54;0.90;99.90
5508;DHT22;2776;51.046;6.772;2023-04-03T04:39:21;0.80;99.90
5508;DHT22;2776;51.046;6.772;2023-04-03T04:41:49;0.70;99.90
5508;DHT22;2776;51.046;6.772;2023-04-03T04:44:16;0.60;99.90
5508;DHT22;2776;51.046;6.772;2023-04-03T04:46:42;0.50;99.90
5508;DHT22;2776;51.046;6.772;2023-04-03T04:49:09;0.40;99.90
5508;DHT22;2776;51.046;6.772;2023-04-03T04:51:36;0.40;99.90
5508;DHT22;2776;51.046;6.772;2023-04-03T04:54:03;0.40;99.90
5508;DHT22;2776;51.046;6.772;2023-04-03T04:56:30;0.40;99.90
5508;DHT22;2776;51.046;6.772;2023-04-03T04:58:59;0.30;99.90
5508;DHT22;2776;51.046;6.772;2023-04-03T05:01:25;0.30;99.90
5508;DHT22;2776;51.046;6.772;2023-04-03T05:03:52;0.20;99.90
5508;DHT22;2776;51.046;6.772;2023-04-03T05:06:19;0.20;99.90
5508;DHT22;2776;51.046;6.772;2023-04-03T05:08:45;0.20;99.90
5508;DHT22;2776;51.046;6.772;2023-04-03T05:11:12;0.20;99.90
5508;DHT22;2776;51.046;6.772;2023-04-03T05:13:39;0.20;99.90
5508;DHT22;2776;51.046;6.772;2023-04-03T05:16:07;0.10;99.90
5508;DHT22;2776;51.046;6.772;2023-04-03T05:18:34;0.10;99.90
5508;DHT22;2776;51.046;6.772;2023-04-03T05:21:01;0.20;99.90
5508;DHT22;2776;51.046;6.772;2023-04-03T05:23:28;0.10;99.90
5508;DHT22;2776;51.046;6.772;2023-04-03T05:25:54;0.10;99.90
5508;DHT22;2776;51.046;6.772;2023-04-03T05:28:21;0.20;99.90
5508;DHT22;2776;51.046;6.772;2023-04-03T05:30:53;0.30;99.90
5508;DHT22;2776;51.046;6.772;2023-04-03T05:33:22;0.70;99.90
5508;DHT22;2776;51.046;6.772;2023-04-03T05:35:49;1.10;99.90
5508;DHT22;2776;51.046;6.772;2023-04-03T05:38:16;1.50;99.90
5508;DHT22;2776;51.046;6.772;2023-04-03T05:40:43;2.10;99.90
5508;DHT22;2776;51.046;6.772;2023-04-03T05:43:10;2.50;99.90
5508;DHT22;2776;51.046;6.772;2023-04-03T05:45:36;3.10;99.90
5508;DHT22;2776;51.046;6.772;2023-04-03T05:48:03;3.70;99.90
5508;DHT22;2776;51.046;6.772;2023-04-03T05:50:31;4.30;99.90
5508;DHT22;2776;51.046;6.772;2023-04-03T05:52:59;5.00;99.90
5508;DHT22;2776;51.046;6.772;2023-04-03T05:55:26;5.60;99.90
5508;DHT22;2776;51.046;6.772;2023-04-03T05:57:53;6.60;99.90
5508;DHT22;2776;51.046;6.772;2023-04-03T06:00:20;7.60;99.90
5508;DHT22;2776;51.046;6.772;2023-04-03T06:02:46;8.40;99.90
5508;DHT22;2776;51.046;6.772;2023-04-03T06:05:13;9.30;99.90
5508;DHT22;2776;51.046;6.772;2023-04-03T06:07:41;10.10;99.90
5508;DHT22;2776;51.046;6.772;2023-04-03T06:10:11;10.60;99.90
5508;DHT22;2776;51.046;6.772;2023-04-03T06:12:38;11.10;94.90
5508;DHT22;2776;51.046;6.772;2023-04-03T06:15:05;11.30;91.00
5508;DHT22;2776;51.046;6.772;2023-04-03T06:17:33;11.80;87.20
5508;DHT22;2776;51.046;6.772;2023-04-03T06:20:00;12.10;81.60
5508;DHT22;2776;51.046;6.772;2023-04-03T06:22:27;12.70;80.00
5508;DHT22;2776;51.046;6.772;2023-04-03T06:24:56;13.20;75.10
5508;DHT22;2776;51.046;6.772;2023-04-03T06:27:23;13.30;69.80
5508;DHT22;2776;51.046;6.772;2023-04-03T06:29:50;13.90;68.70
5508;DHT22;2776;51.046;6.772;2023-04-03T06:32:16;14.10;64.40
5508;DHT22;2776;51.046;6.772;2023-04-03T06:34:43;14.20;61.60
5508;DHT22;2776;51.046;6.772;2023-04-03T06:37:11;14.30;59.40
5508;DHT22;2776;51.046;6.772;2023-04-03T06:39:41;14.20;58.00
5508;DHT22;2776;51.046;6.772;2023-04-03T06:42:09;14.50;59.10
5508;DHT22;2776;51.046;6.772;2023-04-03T06:44:36;14.80;57.80
5508;DHT22;2776;51.046;6.772;2023-04-03T06:47:03;15.40;53.50
5508;DHT22;2776;51.046;6.772;2023-04-03T06:49:30;15.90;49.80
5508;DHT22;2776;51.046;6.772;2023-04-03T06:51:57;16.50;48.30
5508;DHT22;2776;51.046;6.772;2023-04-03T06:54:24;16.80;45.00
5508;DHT22;2776;51.046;6.772;2023-04-03T06:56:51;16.40;43.80
5508;DHT22;2776;51.046;6.772;2023-04-03T06:59:19;16.10;42.20
5508;DHT22;2776;51.046;6.772;2023-04-03T07:01:46;15.70;42.50
5508;DHT22;2776;51.046;6.772;2023-04-03T07:04:13;15.50;43.90
5508;DHT22;2776;51.046;6.772;2023-04-03T07:06:40;15.30;44.20
5508;DHT22;2776;51.046;6.772;2023-04-03T07:09:07;15.00;44.00
5508;DHT22;2776;51.046;6.772;2023-04-03T07:11:34;14.80;43.30
5508;DHT22;2776;51.046;6.772;2023-04-03T07:14:01;14.90;43.60
5508;DHT22;2776;51.046;6.772;2023-04-03T07:16:30;15.10;42.60
5508;DHT22;2776;51.046;6.772;2023-04-03T07:18:57;14.50;39.00
5508;DHT22;2776;51.046;6.772;2023-04-03T07:21:24;14.10;40.00
5508;DHT22;2776;51.046;6.772;2023-04-03T07:23:51;13.30;41.30
5508;DHT22;2776;51.046;6.772;2023-04-03T07:26:17;13.10;41.80
5508;DHT22;2776;51.046;6.772;2023-04-03T07:28:46;12.80;44.10
5508;DHT22;2776;51.046;6.772;2023-04-03T07:31:14;12.50;45.00
5508;DHT22;2776;51.046;6.772;2023-04-03T07:33:44;12.30;45.10
5508;DHT22;2776;51.046;6.772;2023-04-03T07:36:15;11.90;44.70
5508;DHT22;2776;51.046;6.772;2023-04-03T07:38:42;11.60;44.30
5508;DHT22;2776;51.046;6.772;2023-04-03T07:41:11;11.20;44.10
5508;DHT22;2776;51.046;6.772;2023-04-03T07:43:38;11.00;45.60
5508;DHT22;2776;51.046;6.772;2023-04-03T07:46:06;11.10;45.40
5508;DHT22;2776;51.046;6.772;2023-04-03T07:48:33;11.20;44.60
5508;DHT22;2776;51.046;6.772;2023-04-03T07:51:03;11.60;44.80
5508;DHT22;2776;51.046;6.772;2023-04-03T07:53:30;11.80;44.20
5508;DHT22;2776;51.046;6.772;2023-04-03T07:55:57;12.40;43.70
5508;DHT22;2776;51.046;6.772;2023-04-03T07:58:24;12.70;42.80
5508;DHT22;2776;51.046;6.772;2023-04-03T08:00:51;12.90;41.40
5508;DHT22;2776;51.046;6.772;2023-04-03T08:03:18;13.10;40.10
5508;DHT22;2776;51.046;6.772;2023-04-03T08:05:48;12.70;39.40
5508;DHT22;2776;51.046;6.772;2023-04-03T08:08:18;12.50;40.00
5508;DHT22;2776;51.046;6.772;2023-04-03T08:10:48;12.20;40.50
5508;DHT22;2776;51.046;6.772;2023-04-03T08:13:15;11.90;40.60
5508;DHT22;2776;51.046;6.772;2023-04-03T08:15:41;11.50;40.70
5508;DHT22;2776;51.046;6.772;2023-04-03T08:18:09;11.70;42.00
5508;DHT22;2776;51.046;6.772;2023-04-03T08:20:37;11.70;41.90
5508;DHT22;2776;51.046;6.772;2023-04-03T08:23:04;11.20;39.50
5508;DHT22;2776;51.046;6.772;2023-04-03T08:25:32;10.60;41.60
5508;DHT22;2776;51.046;6.772;2023-04-03T08:27:59;10.40;42.00
5508;DHT22;2776;51.046;6.772;2023-04-03T08:30:26;10.10;42.50
5508;DHT22;2776;51.046;6.772;2023-04-03T08:32:52;10.60;43.60
5508;DHT22;2776;51.046;6.772;2023-04-03T08:35:19;11.50;42.60
5508;DHT22;2776;51.046;6.772;2023-04-03T08:37:46;11.90;38.90
5508;DHT22;2776;51.046;6.772;2023-04-03T08:40:14;12.00;39.40
5508;DHT22;2776;51.046;6.772;2023-04-03T08:42:51;11.70;38.60
5508;DHT22;2776;51.046;6.772;2023-04-03T08:45:26;11.60;38.80
5508;DHT22;2776;51.046;6.772;2023-04-03T08:47:58;11.60;38.00
5508;DHT22;2776;51.046;6.772;2023-04-03T08:50:33;11.50;38.20
5508;DHT22;2776;51.046;6.772;2023-04-03T08:53:01;11.20;38.50
5508;DHT22;2776;51.046;6.772;2023-04-03T08:55:33;10.70;39.20
5508;DHT22;2776;51.046;6.772;2023-04-03T08:58:03;10.20;38.80
5508;DHT22;2776;51.046;6.772;2023-04-03T09:00:37;9.70;41.10
5508;DHT22;2776;51.046;6.772;2023-04-03T09:03:12;9.60;40.30
5508;DHT22;2776;51.046;6.772;2023-04-03T09:05:41;10.00;40.40
5508;DHT22;2776;51.046;6.772;2023-04-03T09:08:18;10.40;39.00
5508;DHT22;2776;51.046;6.772;2023-04-03T09:10:48;10.70;36.10
5508;DHT22;2776;51.046;6.772;2023-04-03T09:13:24;10.70;36.30
5508;DHT22;2776;51.046;6.772;2023-04-03T09:15:53;10.90;37.00
5508;DHT22;2776;51.046;6.772;2023-04-03T09:18:23;11.20;37.10
5508;DHT22;2776;51.046;6.772;2023-04-03T09:20:57;11.40;36.90
5508;DHT22;2776;51.046;6.772;2023-04-03T09:23:29;11.50;35.00
5508;DHT22;2776;51.046;6.772;2023-04-03T09:26:02;11.60;35.60
5508;DHT22;2776;51.046;6.772;2023-04-03T09:28:34;11.70;34.30
5508;DHT22;2776;51.046;6.772;2023-04-03T09:31:05;11.80;34.00
5508;DHT22;2776;51.046;6.772;2023-04-03T09:33:39;11.60;33.80
5508;DHT22;2776;51.046;6.772;2023-04-03T09:36:06;11.40;34.00
5508;DHT22;2776;51.046;6.772;2023-04-03T09:38:33;11.20;34.30
5508;DHT22;2776;51.046;6.772;2023-04-03T09:41:05;10.60;35.30
5508;DHT22;2776;51.046;6.772;2023-04-03T09:43:37;10.30;36.50
5508;DHT22;2776;51.046;6.772;2023-04-03T09:46:24;10.50;38.20
5508;DHT22;2776;51.046;6.772;2023-04-03T09:48:52;10.50;37.90
5508;DHT22;2776;51.046;6.772;2023-04-03T09:51:25;10.30;38.60
5508;DHT22;2776;51.046;6.772;2023-04-03T09:53:53;10.20;38.70
5508;DHT22;2776;51.046;6.772;2023-04-03T09:56:23;9.80;38.60
5508;DHT22;2776;51.046;6.772;2023-04-03T09:59:07;9.40;38.40
5508;DHT22;2776;51.046;6.772;2023-04-03T10:01:42;9.30;40.70
5508;DHT22;2776;51.046;6.772;2023-04-03T10:04:11;9.10;39.30
5508;DHT22;2776;51.046;6.772;2023-04-03T10:06:40;9.00;37.90
5508;DHT22;2776;51.046;6.772;2023-04-03T10:09:18;8.80;36.90
5508;DHT22;2776;51.046;6.772;2023-04-03T10:12:04;8.70;36.90
5508;DHT22;2776;51.046;6.772;2023-04-03T10:14:34;8.60;37.70
5508;DHT22;2776;51.046;6.772;2023-04-03T10:17:18;8.40;38.40
5508;DHT22;2776;51.046;6.772;2023-04-03T10:19:48;8.40;39.10
5508;DHT22;2776;51.046;6.772;2023-04-03T10:22:21;8.50;38.40
5508;DHT22;2776;51.046;6.772;2023-04-03T10:25:01;8.40;40.40
5508;DHT22;2776;51.046;6.772;2023-04-03T10:27:39;8.60;39.90
5508;DHT22;2776;51.046;6.772;2023-04-03T10:30:21;8.70;40.40
5508;DHT22;2776;51.046;6.772;2023-04-03T10:33:00;8.90;41.10
5508;DHT22;2776;51.046;6.772;2023-04-03T10:35:40;8.90;40.00
5508;DHT22;2776;51.046;6.772;2023-04-03T10:38:14;8.80;41.30
5508;DHT22;2776;51.046;6.772;2023-04-03T10:40:49;8.80;41.10
5508;DHT22;2776;51.046;6.772;2023-04-03T10:43:24;8.80;40.70
5508;DHT22;2776;51.046;6.772;2023-04-03T10:45:59;8.90;41.80
5508;DHT22;2776;51.046;6.772;2023-04-03T10:48:40;9.00;42.20
5508;DHT22;2776;51.046;6.772;2023-04-03T10:51:23;8.90;40.60
5508;DHT22;2776;51.046;6.772;2023-04-03T10:54:00;8.90;41.60
5508;DHT22;2776;51.046;6.772;2023-04-03T10:56:33;9.00;40.90
5508;DHT22;2776;51.046;6.772;2023-04-03T10:59:09;9.00;40.50
5508;DHT22;2776;51.046;6.772;2023-04-03T11:01:42;9.10;41.40
5508;DHT22;2776;51.046;6.772;2023-04-03T11:04:11;9.10;42.00
5508;DHT22;2776;51.046;6.772;2023-04-03T11:06:43;9.00;39.60
5508;DHT22;2776;51.046;6.772;2023-04-03T11:09:19;9.10;42.10
5508;DHT22;2776;51.046;6.772;2023-04-03T11:11:49;9.10;42.90
5508;DHT22;2776;51.046;6.772;2023-04-03T11:14:23;9.30;42.90
5508;DHT22;2776;51.046;6.772;2023-04-03T11:16:59;9.40;40.70
5508;DHT22;2776;51.046;6.772;2023-04-03T11:19:34;9.60;40.00
5508;DHT22;2776;51.046;6.772;2023-04-03T11:22:06;9.60;40.30
5508;DHT22;2776;51.046;6.772;2023-04-03T11:24:37;9.70;38.90
5508;DHT22;2776;51.046;6.772;2023-04-03T11:29:39;9.50;37.10
5508;DHT22;2776;51.046;6.772;2023-04-03T11:32:25;9.40;33.80
5508;DHT22;2776;51.046;6.772;2023-04-03T11:34:55;9.30;35.00
5508;DHT22;2776;51.046;6.772;2023-04-03T11:37:29;9.40;34.40
5508;DHT22;2776;51.046;6.772;2023-04-03T11:40:00;9.40;33.70
5508;DHT22;2776;51.046;6.772;2023-04-03T11:42:32;9.60;35.00
5508;DHT22;2776;51.046;6.772;2023-04-03T11:45:24;9.50;34.70
5508;DHT22;2776;51.046;6.772;2023-04-03T11:47:54;9.50;33.50
5508;DHT22;2776;51.046;6.772;2023-04-03T11:50:39;9.50;35.20
5508;DHT22;2776;51.046;6.772;2023-04-03T11:53:31;9.60;33.00
5508;DHT22;2776;51.046;6.772;2023-04-03T11:56:04;9.60;33.50
5508;DHT22;2776;51.046;6.772;2023-04-03T11:58:32;9.60;32.30
5508;DHT22;2776;51.046;6.772;2023-04-03T12:01:07;9.50;31.90
5508;DHT22;2776;51.046;6.772;2023-04-03T12:07:00;9.60;33.50
5508;DHT22;2776;51.046;6.772;2023-04-03T12:12:38;9.70;32.80
5508;DHT22;2776;51.046;6.772;2023-04-03T12:15:44;9.70;34.30
5508;DHT22;2776;51.046;6.772;2023-04-03T12:21:17;9.80;32.40
5508;DHT22;2776;51.046;6.772;2023-04-03T12:24:22;9.90;32.70
5508;DHT22;2776;51.046;6.772;2023-04-03T12:27:01;10.00;33.90
5508;DHT22;2776;51.046;6.772;2023-04-03T12:29:33;10.00;31.00
5508;DHT22;2776;51.046;6.772;2023-04-03T12:32:11;10.00;31.00
5508;DHT22;2776;51.046;6.772;2023-04-03T12:35:02;10.10;30.30
5508;DHT22;2776;51.046;6.772;2023-04-03T12:37:43;10.10;32.10
5508;DHT22;2776;51.046;6.772;2023-04-03T12:40:23;10.20;29.30
5508;DHT22;2776;51.046;6.772;2023-04-03T12:43:20;10.10;29.20
5508;DHT22;2776;51.046;6.772;2023-04-03T12:45:52;10.20;32.00
5508;DHT22;2776;51.046;6.772;2023-04-03T12:48:26;10.30;32.80
5508;DHT22;2776;51.046;6.772;2023-04-03T12:50:54;10.40;32.00
5508;DHT22;2776;51.046;6.772;2023-04-03T12:53:24;10.50;32.80
5508;DHT22;2776;51.046;6.772;2023-04-03T12:55:55;10.40;29.20
5508;DHT22;2776;51.046;6.772;2023-04-03T12:58:24;10.50;31.00
5508;DHT22;2776;51.046;6.772;2023-04-03T13:01:02;10.60;30.90
5508;DHT22;2776;51.046;6.772;2023-04-03T13:03:30;10.60;31.30
5508;DHT22;2776;51.046;6.772;2023-04-03T13:05:59;10.60;31.10
5508;DHT22;2776;51.046;6.772;2023-04-03T13:08:27;10.60;30.40
5508;DHT22;2776;51.046;6.772;2023-04-03T13:10:59;10.50;28.30
5508;DHT22;2776;51.046;6.772;2023-04-03T13:13:27;10.50;29.90
5508;DHT22;2776;51.046;6.772;2023-04-03T13:15:54;10.50;28.80
5508;DHT22;2776;51.046;6.772;2023-04-03T13:18:23;10.40;28.50
5508;DHT22;2776;51.046;6.772;2023-04-03T13:20:51;10.50;29.50
5508;DHT22;2776;51.046;6.772;2023-04-03T13:23:19;10.50;30.50
5508;DHT22;2776;51.046;6.772;2023-04-03T13:25:48;10.40;29.40
5508;DHT22;2776;51.046;6.772;2023-04-03T13:28:20;10.50;31.40
5508;DHT22;2776;51.046;6.772;2023-04-03T13:30:57;10.50;31.80
5508;DHT22;2776;51.046;6.772;2023-04-03T13:33:28;10.40;30.10
5508;DHT22;2776;51.046;6.772;2023-04-03T13:35:58;10.40;31.00
5508;DHT22;2776;51.046;6.772;2023-04-03T13:38:28;10.50;29.80
5508;DHT22;2776;51.046;6.772;2023-04-03T13:40:58;10.50;31.40
5508;DHT22;2776;51.046;6.772;2023-04-03T13:43:31;10.50;30.50
5508;DHT22;2776;51.046;6.772;2023-04-03T13:46:02;10.40;30.20
5508;DHT22;2776;51.046;6.772;2023-04-03T13:48:38;10.40;30.70
5508;DHT22;2776;51.046;6.772;2023-04-03T13:51:16;10.30;30.30
5508;DHT22;2776;51.046;6.772;2023-04-03T13:53:47;10.40;30.60
5508;DHT22;2776;51.046;6.772;2023-04-03T13:56:21;10.50;34.20
5508;DHT22;2776;51.046;6.772;2023-04-03T13:59:01;10.60;31.20
5508;DHT22;2776;51.046;6.772;2023-04-03T14:01:38;10.60;31.60
5508;DHT22;2776;51.046;6.772;2023-04-03T14:04:13;10.50;31.30
5508;DHT22;2776;51.046;6.772;2023-04-03T14:06:41;10.50;33.50
5508;DHT22;2776;51.046;6.772;2023-04-03T14:09:08;10.50;32.90
5508;DHT22;2776;51.046;6.772;2023-04-03T14:11:35;10.40;32.10
5508;DHT22;2776;51.046;6.772;2023-04-03T14:14:11;10.30;32.10
5508;DHT22;2776;51.046;6.772;2023-04-03T14:16:41;10.50;33.30
5508;DHT22;2776;51.046;6.772;2023-04-03T14:19:17;10.60;33.30
5508;DHT22;2776;51.046;6.772;2023-04-03T14:21:44;10.70;34.90
5508;DHT22;2776;51.046;6.772;2023-04-03T14:24:11;10.70;33.60
5508;DHT22;2776;51.046;6.772;2023-04-03T14:26:37;10.70;35.40
5508;DHT22;2776;51.046;6.772;2023-04-03T14:29:06;10.70;34.60
5508;DHT22;2776;51.046;6.772;2023-04-03T14:31:32;10.70;34.70
5508;DHT22;2776;51.046;6.772;2023-04-03T14:33:59;10.70;33.20
5508;DHT22;2776;51.046;6.772;2023-04-03T14:36:28;10.70;33.80
5508;DHT22;2776;51.046;6.772;2023-04-03T14:38:55;10.70;34.90
5508;DHT22;2776;51.046;6.772;2023-04-03T14:41:24;10.60;32.20
5508;DHT22;2776;51.046;6.772;2023-04-03T14:43:52;10.50;33.50
5508;DHT22;2776;51.046;6.772;2023-04-03T14:46:24;10.40;34.20
5508;DHT22;2776;51.046;6.772;2023-04-03T14:48:52;10.40;35.10
5508;DHT22;2776;51.046;6.772;2023-04-03T14:51:18;10.40;34.80
5508;DHT22;2776;51.046;6.772;2023-04-03T14:53:45;10.40;34.60
5508;DHT22;2776;51.046;6.772;2023-04-03T14:56:13;10.40;33.80
5508;DHT22;2776;51.046;6.772;2023-04-03T14:58:40;10.30;33.90
5508;DHT22;2776;51.046;6.772;2023-04-03T15:01:09;10.30;33.30
5508;DHT22;2776;51.046;6.772;2023-04-03T15:03:38;10.30;33.70
5508;DHT22;2776;51.046;6.772;2023-04-03T15:06:05;10.30;34.70
5508;DHT22;2776;51.046;6.772;2023-04-03T15:08:32;10.20;33.20
5508;DHT22;2776;51.046;6.772;2023-04-03T15:10:58;10.10;32.90
5508;DHT22;2776;51.046;6.772;2023-04-03T15:13:26;10.10;33.10
5508;DHT22;2776;51.046;6.772;2023-04-03T15:15:53;10.10;32.80
5508;DHT22;2776;51.046;6.772;2023-04-03T15:18:22;10.10;33.50
5508;DHT22;2776;51.046;6.772;2023-04-03T15:20:52;10.10;33.60
5508;DHT22;2776;51.046;6.772;2023-04-03T15:23:20;10.20;34.20
5508;DHT22;2776;51.046;6.772;2023-04-03T15:25:51;10.30;33.90
5508;DHT22;2776;51.046;6.772;2023-04-03T15:28:22;10.30;33.60
5508;DHT22;2776;51.046;6.772;2023-04-03T15:30:50;10.20;34.00
5508;DHT22;2776;51.046;6.772;2023-04-03T15:33:17;10.10;33.70
5508;DHT22;2776;51.046;6.772;2023-04-03T15:35:44;10.00;33.60
5508;DHT22;2776;51.046;6.772;2023-04-03T15:38:12;10.00;33.70
5508;DHT22;2776;51.046;6.772;2023-04-03T15:40:40;10.10;34.70
5508;DHT22;2776;51.046;6.772;2023-04-03T15:43:08;10.10;35.00
5508;DHT22;2776;51.046;6.772;2023-04-03T15:45:36;10.20;34.70
5508;DHT22;2776;51.046;6.772;2023-04-03T15:48:03;10.20;34.10
5508;DHT22;2776;51.046;6.772;2023-04-03T15:50:30;10.20;34.50
5508;DHT22;2776;51.046;6.772;2023-04-03T15:52:57;10.20;34.70
5508;DHT22;2776;51.046;6.772;2023-04-03T15:55:26;10.20;34.80
5508;DHT22;2776;51.046;6.772;2023-04-03T15:57:53;10.10;34.60
5508;DHT22;2776;51.046;6.772;2023-04-03T16:00:21;10.10;34.90
5508;DHT22;2776;51.046;6.772;2023-04-03T16:02:50;10.00;35.40
5508;DHT22;2776;51.046;6.772;2023-04-03T16:05:19;9.90;35.50
5508;DHT22;2776;51.046;6.772;2023-04-03T16:07:47;9.90;35.70
5508;DHT22;2776;51.046;6.772;2023-04-03T16:10:16;9.90;37.50
5508;DHT22;2776;51.046;6.772;2023-04-03T16:12:44;9.80;35.00
5508;DHT22;2776;51.046;6.772;2023-04-03T16:15:11;9.80;34.80
5508;DHT22;2776;51.046;6.772;2023-04-03T16:17:39;9.80;36.10
5508;DHT22;2776;51.046;6.772;2023-04-03T16:20:08;9.80;36.30
5508;DHT22;2776;51.046;6.772;2023-04-03T16:22:35;9.80;36.00
5508;DHT22;2776;51.046;6.772;2023-04-03T16:25:04;9.70;36.30
5508;DHT22;2776;51.046;6.772;2023-04-03T16:27:31;9.70;35.90
5508;DHT22;2776;51.046;6.772;2023-04-03T16:29:59;9.60;35.90
5508;DHT22;2776;51.046;6.772;2023-04-03T16:32:28;9.60;35.60
5508;DHT22;2776;51.046;6.772;2023-04-03T16:34:56;9.60;36.30
5508;DHT22;2776;51.046;6.772;2023-04-03T16:37:23;9.50;35.70
5508;DHT22;2776;51.046;6.772;2023-04-03T16:39:49;9.50;36.00